createdAt,value
2022-11-13T00:00:39.099Z,102521.17
2022-11-13T00:03:24.571Z,102517.31
2022-11-13T00:06:14.350Z,102517.59
2022-11-13T00:08:59.623Z,102518.73
2022-11-13T00:11:45.012Z,102513.11
2022-11-13T00:14:30.015Z,102508.12
2022-11-13T00:17:15.210Z,102508.25
2022-11-13T00:20:03.637Z,102501.88
2022-11-13T00:22:48.668Z,102498.86
2022-11-13T00:25:39.132Z,102491.36
2022-11-13T00:28:24.694Z,102496.28
2022-11-13T00:31:18.945Z,102493.77
2022-11-13T00:37:09.002Z,102496.07
2022-11-13T00:39:59.378Z,102483.45
2022-11-13T00:42:44.859Z,102483.78
2022-11-13T00:45:29.612Z,102485.06
2022-11-13T00:48:14.872Z,102485.89
2022-11-13T00:51:00.183Z,102482.17
2022-11-13T00:53:45.072Z,102480.30
2022-11-13T00:56:30.111Z,102485.75
2022-11-13T00:59:19.268Z,102483.50
2022-11-13T01:02:04.683Z,102476.34
2022-11-13T01:04:49.635Z,102471.14
2022-11-13T01:07:38.734Z,102471.60
2022-11-13T01:10:23.786Z,102473.54
2022-11-13T01:13:09.341Z,102470.04
2022-11-13T01:15:54.223Z,102469.14
2022-11-13T01:18:44.984Z,102466.42
2022-11-13T01:21:30.451Z,102456.67
2022-11-13T01:24:15.726Z,102458.21
2022-11-13T01:27:00.907Z,102454.80
2022-11-13T01:29:46.224Z,102450.55
2022-11-13T01:32:31.693Z,102447.86
2022-11-13T01:35:16.910Z,102447.45
2022-11-13T01:38:02.152Z,102443.38
2022-11-13T01:40:47.212Z,102442.45
2022-11-13T01:43:37.807Z,102433.36
2022-11-13T01:46:35.178Z,102437.17
2022-11-13T01:49:23.219Z,102435.02
2022-11-13T01:52:26.685Z,102434.23
2022-11-13T01:55:17.216Z,102432.20
2022-11-13T01:58:05.099Z,102426.73
2022-11-13T02:00:50.450Z,102426.14
2022-11-13T02:03:39.361Z,102431.49
2022-11-13T02:06:29.168Z,102442.33
2022-11-13T02:09:19.734Z,102439.80
2022-11-13T02:12:09.845Z,102435.45
2022-11-13T02:15:00.224Z,102434.58
2022-11-13T02:17:51.287Z,102438.63
2022-11-13T02:20:51.829Z,102434.54
2022-11-13T02:23:56.838Z,102435.33
2022-11-13T02:26:46.565Z,102432.27
2022-11-13T02:29:31.622Z,102432.77
2022-11-13T02:32:16.723Z,102434.06
2022-11-13T02:35:02.147Z,102431.77
2022-11-13T02:37:51.427Z,102428.70
2022-11-13T02:40:41.169Z,102426.74
2022-11-13T02:43:26.166Z,102424.46
2022-11-13T02:46:11.120Z,102419.39
2022-11-13T02:48:56.336Z,102418.41
2022-11-13T02:51:41.363Z,102417.96
2022-11-13T02:54:26.228Z,102422.55
2022-11-13T02:57:11.827Z,102417.74
2022-11-13T02:59:56.719Z,102416.14
2022-11-13T03:02:42.104Z,102414.27
2022-11-13T03:05:27.379Z,102412.48
2022-11-13T03:08:12.420Z,102409.88
2022-11-13T03:10:57.812Z,102404.21
2022-11-13T03:13:43.213Z,102400.77
2022-11-13T03:16:28.078Z,102402.52
2022-11-13T03:19:17.668Z,102403.34
2022-11-13T03:22:02.660Z,102403.31
2022-11-13T03:24:47.820Z,102405.38
2022-11-13T03:27:33.168Z,102405.17
2022-11-13T03:30:23.516Z,102400.81
2022-11-13T03:33:08.365Z,102404.92
2022-11-13T03:35:58.209Z,102402.84
2022-11-13T03:38:43.168Z,102407.39
2022-11-13T03:41:28.389Z,102410.27
2022-11-13T03:44:13.638Z,102404.64
2022-11-13T03:46:58.773Z,102405.61
2022-11-13T03:49:44.024Z,102409.27
2022-11-13T03:52:29.061Z,102409.13
2022-11-13T03:55:14.361Z,102403.39
2022-11-13T03:57:59.799Z,102402.98
2022-11-13T04:00:49.234Z,102400.16
2022-11-13T04:03:39.160Z,102399.23
2022-11-13T04:06:24.394Z,102401.15
2022-11-13T04:09:09.499Z,102398.15
2022-11-13T04:11:54.753Z,102403.19
2022-11-13T04:14:39.668Z,102402.65
2022-11-13T04:17:24.482Z,102401.75
2022-11-13T04:20:09.597Z,102399.65
2022-11-13T04:22:57.721Z,102401.27
2022-11-13T04:25:47.631Z,102399.38
2022-11-13T04:28:33.003Z,102397.21
2022-11-13T04:31:18.273Z,102393.77
2022-11-13T04:34:03.420Z,102399.42
2022-11-13T04:36:48.425Z,102398.01
2022-11-13T04:39:33.686Z,102399.33
2022-11-13T04:42:37.338Z,102398.00
2022-11-13T04:45:27.801Z,102394.42
2022-11-13T04:48:12.951Z,102392.20
2022-11-13T04:50:59.087Z,102395.08
2022-11-13T04:53:44.268Z,102386.08
2022-11-13T04:56:29.411Z,102387.45
2022-11-13T04:59:14.669Z,102389.75
2022-11-13T05:01:59.849Z,102386.55
2022-11-13T05:04:49.378Z,102388.87
2022-11-13T05:07:34.413Z,102383.15
2022-11-13T05:10:19.316Z,102384.55
2022-11-13T05:13:04.423Z,102384.80
2022-11-13T05:15:52.671Z,102388.08
2022-11-13T05:18:40.200Z,102386.30
2022-11-13T05:21:25.502Z,102387.23
2022-11-13T05:24:15.378Z,102387.14
2022-11-13T05:27:00.600Z,102385.36
2022-11-13T05:29:45.484Z,102389.38
2022-11-13T05:32:32.278Z,102387.38
2022-11-13T05:35:17.700Z,102390.45
2022-11-13T05:38:07.071Z,102389.06
2022-11-13T05:40:52.373Z,102390.78
2022-11-13T05:43:42.586Z,102390.02
2022-11-13T05:46:30.609Z,102393.85
2022-11-13T05:49:15.789Z,102391.37
2022-11-13T05:52:00.698Z,102391.61
2022-11-13T05:54:45.888Z,102387.58
2022-11-13T05:57:30.809Z,102383.23
2022-11-13T06:00:18.841Z,102389.98
2022-11-13T06:03:03.957Z,102391.29
2022-11-13T06:05:48.956Z,102391.98
2022-11-13T06:08:41.910Z,102390.06
2022-11-13T06:11:32.846Z,102390.58
2022-11-13T06:14:18.058Z,102389.61
2022-11-13T06:17:03.540Z,102390.08
2022-11-13T06:19:48.668Z,102387.56
2022-11-13T06:22:33.530Z,102390.17
2022-11-13T06:25:18.777Z,102386.92
2022-11-13T06:28:03.974Z,102389.85
2022-11-13T06:30:49.314Z,102390.58
2022-11-13T06:33:39.103Z,102390.31
2022-11-13T06:36:29.814Z,102390.23
2022-11-13T06:39:15.258Z,102387.58
2022-11-13T06:42:00.571Z,102390.53
2022-11-13T06:44:45.856Z,102388.90
2022-11-13T06:47:30.980Z,102392.92
2022-11-13T06:50:16.340Z,102393.99
2022-11-13T06:53:01.779Z,102393.04
2022-11-13T06:55:53.027Z,102393.83
2022-11-13T06:58:38.173Z,102389.11
2022-11-13T07:01:28.356Z,102388.67
2022-11-13T07:04:15.440Z,102387.90
2022-11-13T07:07:00.902Z,102385.42
2022-11-13T07:09:46.348Z,102387.45
2022-11-13T07:12:31.744Z,102389.61
2022-11-13T07:15:17.152Z,102392.70
2022-11-13T07:18:06.387Z,102386.70
2022-11-13T07:20:51.440Z,102382.55
2022-11-13T07:23:42.621Z,102380.46
2022-11-13T07:26:27.431Z,102378.81
2022-11-13T07:29:12.656Z,102378.48
2022-11-13T07:31:57.382Z,102375.60
2022-11-13T07:34:42.673Z,102377.90
2022-11-13T07:37:27.521Z,102376.59
2022-11-13T07:40:12.540Z,102373.70
2022-11-13T07:43:02.360Z,102377.59
2022-11-13T07:45:58.000Z,102380.42
2022-11-13T07:48:43.486Z,102382.02
2022-11-13T07:51:28.626Z,102386.28
2022-11-13T07:54:13.856Z,102394.35
2022-11-13T07:56:59.247Z,102391.70
2022-11-13T07:59:44.830Z,102394.38
2022-11-13T08:02:30.515Z,102400.08
2022-11-13T08:05:16.510Z,102399.75
2022-11-13T08:08:03.906Z,102404.38
2022-11-13T08:10:49.053Z,102403.30
2022-11-13T08:13:35.649Z,102405.90
2022-11-13T08:16:23.130Z,102409.04
2022-11-13T08:19:08.751Z,102407.00
2022-11-13T08:21:53.861Z,102408.27
2022-11-13T08:24:38.770Z,102418.12
2022-11-13T08:27:28.638Z,102417.02
2022-11-13T08:30:17.633Z,102409.01
2022-11-13T08:33:07.487Z,102409.09
2022-11-13T08:35:58.835Z,102407.70
2022-11-13T08:38:43.975Z,102407.29
2022-11-13T08:41:28.953Z,102406.96
2022-11-13T08:44:14.247Z,102408.80
2022-11-13T08:46:59.176Z,102402.84
2022-11-13T08:49:44.351Z,102402.61
2022-11-13T08:52:29.405Z,102408.80
2022-11-13T08:55:14.414Z,102407.27
2022-11-13T08:58:01.816Z,102403.96
2022-11-13T09:00:47.005Z,102408.63
2022-11-13T09:03:32.060Z,102402.39
2022-11-13T09:06:17.471Z,102404.67
2022-11-13T09:09:06.566Z,102408.46
2022-11-13T09:11:51.813Z,102408.52
2022-11-13T09:14:41.617Z,102409.67
2022-11-13T09:17:26.922Z,102411.66
2022-11-13T09:20:14.031Z,102407.66
2022-11-13T09:23:09.368Z,102402.63
2022-11-13T09:25:54.729Z,102403.11
2022-11-13T09:28:39.567Z,102398.42
2022-11-13T09:31:24.625Z,102399.67
2022-11-13T09:34:09.794Z,102397.63
2022-11-13T09:36:54.890Z,102394.75
2022-11-13T09:39:39.864Z,102390.84
2022-11-13T09:42:29.338Z,102393.40
2022-11-13T09:45:15.318Z,102395.58
2022-11-13T09:48:12.742Z,102393.90
2022-11-13T09:51:04.334Z,102395.95
2022-11-13T09:53:49.451Z,102397.68
2022-11-13T09:56:55.940Z,102397.80
2022-11-13T09:59:51.231Z,102393.27
2022-11-13T10:02:48.854Z,102392.73
2022-11-13T10:05:43.107Z,102388.49
2022-11-13T10:08:28.425Z,102386.04
2022-11-13T10:11:39.026Z,102382.98
2022-11-13T10:14:43.890Z,102383.61
2022-11-13T10:17:31.666Z,102379.45
2022-11-13T10:20:36.771Z,102381.64
2022-11-13T10:23:29.047Z,102375.05
2022-11-13T10:26:18.743Z,102367.45
2022-11-13T10:29:15.167Z,102370.08
2022-11-13T10:32:17.075Z,102367.74
2022-11-13T10:35:05.587Z,102363.55
2022-11-13T10:38:09.543Z,102363.69
2022-11-13T10:41:06.935Z,102359.34
2022-11-13T10:43:58.043Z,102359.39
2022-11-13T10:46:43.238Z,102356.36
2022-11-13T10:49:30.922Z,102356.39
2022-11-13T10:52:30.688Z,102353.69
2022-11-13T10:55:24.626Z,102348.44
2022-11-13T10:58:12.221Z,102349.84
2022-11-13T11:00:57.416Z,102340.10
2022-11-13T11:03:53.660Z,102337.41
2022-11-13T11:09:54.806Z,102334.67
2022-11-13T11:12:39.898Z,102333.91
2022-11-13T11:15:31.376Z,102333.30
2022-11-13T11:18:16.616Z,102338.39
2022-11-13T11:21:06.029Z,102330.35
2022-11-13T11:24:08.308Z,102324.80
2022-11-13T11:27:05.208Z,102328.44
